sensor_id;sensor_type;location;lat;lon;timestamp;P1;durP1;ratioP1;P2;durP2;ratioP2
54557;SDS011;40452;50.080;20.040;2022-08-21T00:02:21;16.15;;;10.13;;
54557;SDS011;40452;50.080;20.040;2022-08-21T00:04:48;17.15;;;10.43;;
54557;SDS011;40452;50.080;20.040;2022-08-21T05:32:14;27.90;;;10.32;;
54557;SDS011;40452;50.080;20.040;2022-08-21T05:34:40;13.60;;;9.45;;
54557;SDS011;40452;50.080;20.040;2022-08-21T05:37:06;14.15;;;9.65;;
54557;SDS011;40452;50.080;20.040;2022-08-21T05:39:32;15.43;;;10.20;;
54557;SDS011;40452;50.080;20.040;2022-08-21T05:41:57;16.35;;;9.88;;
54557;SDS011;40452;50.080;20.040;2022-08-21T05:44:23;16.02;;;10.20;;
54557;SDS011;40452;50.080;20.040;2022-08-21T05:46:49;17.90;;;10.73;;
54557;SDS011;40452;50.080;20.040;2022-08-21T05:49:14;15.98;;;10.40;;
54557;SDS011;40452;50.080;20.040;2022-08-21T05:51:40;17.92;;;9.90;;
54557;SDS011;40452;50.080;20.040;2022-08-21T05:54:06;17.08;;;11.40;;
54557;SDS011;40452;50.080;20.040;2022-08-21T05:56:33;18.05;;;11.00;;
54557;SDS011;40452;50.080;20.040;2022-08-21T05:58:58;16.38;;;11.23;;
54557;SDS011;40452;50.080;20.040;2022-08-21T06:01:24;17.20;;;11.35;;
54557;SDS011;40452;50.080;20.040;2022-08-21T06:03:50;16.13;;;11.43;;
54557;SDS011;40452;50.080;20.040;2022-08-21T06:06:16;16.92;;;12.18;;
54557;SDS011;40452;50.080;20.040;2022-08-21T06:08:41;19.27;;;11.02;;
54557;SDS011;40452;50.080;20.040;2022-08-21T06:11:07;22.30;;;11.50;;
54557;SDS011;40452;50.080;20.040;2022-08-21T06:13:34;20.23;;;12.32;;
54557;SDS011;40452;50.080;20.040;2022-08-21T06:16:02;22.33;;;12.93;;
54557;SDS011;40452;50.080;20.040;2022-08-21T06:18:31;19.88;;;11.70;;
54557;SDS011;40452;50.080;20.040;2022-08-21T06:20:57;21.23;;;13.15;;
54557;SDS011;40452;50.080;20.040;2022-08-21T06:23:23;22.98;;;13.00;;
54557;SDS011;40452;50.080;20.040;2022-08-21T06:25:49;23.38;;;12.75;;
54557;SDS011;40452;50.080;20.040;2022-08-21T06:28:14;20.95;;;13.23;;
54557;SDS011;40452;50.080;20.040;2022-08-21T06:30:40;22.70;;;13.35;;
54557;SDS011;40452;50.080;20.040;2022-08-21T06:33:07;19.05;;;12.55;;
54557;SDS011;40452;50.080;20.040;2022-08-21T06:35:32;20.90;;;13.32;;
54557;SDS011;40452;50.080;20.040;2022-08-21T06:37:59;26.27;;;13.52;;
54557;SDS011;40452;50.080;20.040;2022-08-21T06:40:25;22.73;;;13.30;;
54557;SDS011;40452;50.080;20.040;2022-08-21T06:42:52;19.58;;;12.73;;
54557;SDS011;40452;50.080;20.040;2022-08-21T06:45:17;19.42;;;13.02;;
54557;SDS011;40452;50.080;20.040;2022-08-21T06:47:43;17.92;;;13.30;;
54557;SDS011;40452;50.080;20.040;2022-08-21T06:50:09;18.52;;;12.95;;
54557;SDS011;40452;50.080;20.040;2022-08-21T06:52:35;21.40;;;13.20;;
54557;SDS011;40452;50.080;20.040;2022-08-21T06:55:02;19.30;;;12.68;;
54557;SDS011;40452;50.080;20.040;2022-08-21T06:57:29;21.10;;;13.45;;
54557;SDS011;40452;50.080;20.040;2022-08-21T06:59:55;22.02;;;13.25;;
54557;SDS011;40452;50.080;20.040;2022-08-21T07:02:20;21.02;;;13.00;;
54557;SDS011;40452;50.080;20.040;2022-08-21T07:04:46;22.33;;;13.18;;
54557;SDS011;40452;50.080;20.040;2022-08-21T07:07:12;23.90;;;14.50;;
54557;SDS011;40452;50.080;20.040;2022-08-21T07:09:37;22.73;;;13.45;;
54557;SDS011;40452;50.080;20.040;2022-08-21T07:12:04;28.88;;;13.57;;
54557;SDS011;40452;50.080;20.040;2022-08-21T07:14:30;21.17;;;13.57;;
54557;SDS011;40452;50.080;20.040;2022-08-21T07:16:55;21.90;;;14.13;;
54557;SDS011;40452;50.080;20.040;2022-08-21T07:19:21;22.50;;;13.25;;
54557;SDS011;40452;50.080;20.040;2022-08-21T07:21:46;19.42;;;13.02;;
54557;SDS011;40452;50.080;20.040;2022-08-21T07:24:12;18.35;;;13.75;;
54557;SDS011;40452;50.080;20.040;2022-08-21T07:26:38;19.98;;;13.30;;
54557;SDS011;40452;50.080;20.040;2022-08-21T07:29:04;19.15;;;13.02;;
54557;SDS011;40452;50.080;20.040;2022-08-21T07:31:29;18.83;;;13.50;;
54557;SDS011;40452;50.080;20.040;2022-08-21T07:33:55;17.60;;;12.15;;
54557;SDS011;40452;50.080;20.040;2022-08-21T07:36:21;16.15;;;12.57;;
54557;SDS011;40452;50.080;20.040;2022-08-21T07:38:46;22.13;;;14.27;;
54557;SDS011;40452;50.080;20.040;2022-08-21T07:41:16;21.45;;;13.45;;
54557;SDS011;40452;50.080;20.040;2022-08-21T07:43:43;26.50;;;16.20;;
54557;SDS011;40452;50.080;20.040;2022-08-21T07:46:09;27.13;;;14.68;;
54557;SDS011;40452;50.080;20.040;2022-08-21T07:48:35;23.02;;;14.60;;
54557;SDS011;40452;50.080;20.040;2022-08-21T07:51:02;26.70;;;14.45;;
54557;SDS011;40452;50.080;20.040;2022-08-21T07:53:34;24.05;;;16.90;;
54557;SDS011;40452;50.080;20.040;2022-08-21T07:56:01;19.00;;;14.55;;
54557;SDS011;40452;50.080;20.040;2022-08-21T07:58:28;25.70;;;16.15;;
54557;SDS011;40452;50.080;20.040;2022-08-21T08:00:53;28.52;;;14.90;;
54557;SDS011;40452;50.080;20.040;2022-08-21T08:03:19;21.23;;;15.88;;
54557;SDS011;40452;50.080;20.040;2022-08-21T08:05:45;23.80;;;15.88;;
54557;SDS011;40452;50.080;20.040;2022-08-21T08:08:10;22.88;;;15.32;;
54557;SDS011;40452;50.080;20.040;2022-08-21T08:10:36;21.05;;;15.13;;
54557;SDS011;40452;50.080;20.040;2022-08-21T08:13:02;21.95;;;14.52;;
54557;SDS011;40452;50.080;20.040;2022-08-21T08:15:28;27.60;;;15.82;;
54557;SDS011;40452;50.080;20.040;2022-08-21T08:17:54;21.02;;;14.98;;
54557;SDS011;40452;50.080;20.040;2022-08-21T08:20:20;22.17;;;14.82;;
54557;SDS011;40452;50.080;20.040;2022-08-21T08:22:47;22.67;;;14.98;;
54557;SDS011;40452;50.080;20.040;2022-08-21T08:25:15;21.88;;;15.25;;
54557;SDS011;40452;50.080;20.040;2022-08-21T08:27:41;19.05;;;14.18;;
54557;SDS011;40452;50.080;20.040;2022-08-21T08:30:08;21.15;;;15.20;;
54557;SDS011;40452;50.080;20.040;2022-08-21T08:32:36;20.92;;;14.23;;
54557;SDS011;40452;50.080;20.040;2022-08-21T08:35:03;23.13;;;14.20;;
54557;SDS011;40452;50.080;20.040;2022-08-21T08:37:29;20.52;;;13.85;;
54557;SDS011;40452;50.080;20.040;2022-08-21T08:39:54;21.90;;;15.27;;
54557;SDS011;40452;50.080;20.040;2022-08-21T08:42:24;21.88;;;14.73;;
54557;SDS011;40452;50.080;20.040;2022-08-21T08:44:57;21.42;;;15.38;;
54557;SDS011;40452;50.080;20.040;2022-08-21T08:47:31;26.08;;;15.48;;
54557;SDS011;40452;50.080;20.040;2022-08-21T08:50:45;25.27;;;15.55;;
54557;SDS011;40452;50.080;20.040;2022-08-21T08:52:54;21.65;;;14.93;;
54557;SDS011;40452;50.080;20.040;2022-08-21T08:55:26;22.75;;;14.57;;
54557;SDS011;40452;50.080;20.040;2022-08-21T08:58:05;20.17;;;13.13;;
54557;SDS011;40452;50.080;20.040;2022-08-21T09:00:31;23.95;;;15.52;;
54557;SDS011;40452;50.080;20.040;2022-08-21T09:02:59;19.52;;;13.73;;
54557;SDS011;40452;50.080;20.040;2022-08-21T09:05:36;23.38;;;14.38;;
54557;SDS011;40452;50.080;20.040;2022-08-21T09:08:15;20.88;;;14.55;;
54557;SDS011;40452;50.080;20.040;2022-08-21T09:16:34;24.45;;;14.52;;
54557;SDS011;40452;50.080;20.040;2022-08-21T09:19:36;22.95;;;14.65;;
54557;SDS011;40452;50.080;20.040;2022-08-21T09:27:47;20.97;;;13.90;;
54557;SDS011;40452;50.080;20.040;2022-08-21T09:30:13;22.75;;;15.00;;
54557;SDS011;40452;50.080;20.040;2022-08-21T09:32:39;21.88;;;14.52;;
54557;SDS011;40452;50.080;20.040;2022-08-21T09:35:11;18.83;;;14.75;;
54557;SDS011;40452;50.080;20.040;2022-08-21T09:37:52;23.08;;;14.95;;
54557;SDS011;40452;50.080;20.040;2022-08-21T09:40:29;19.63;;;14.05;;
54557;SDS011;40452;50.080;20.040;2022-08-21T09:45:29;17.63;;;13.70;;
54557;SDS011;40452;50.080;20.040;2022-08-21T09:47:56;22.38;;;14.38;;
54557;SDS011;40452;50.080;20.040;2022-08-21T09:50:32;20.70;;;13.70;;
54557;SDS011;40452;50.080;20.040;2022-08-21T09:52:58;18.38;;;14.57;;
54557;SDS011;40452;50.080;20.040;2022-08-21T09:55:38;21.58;;;13.98;;
54557;SDS011;40452;50.080;20.040;2022-08-21T09:58:31;22.30;;;15.68;;
54557;SDS011;40452;50.080;20.040;2022-08-21T10:00:59;19.98;;;14.07;;
54557;SDS011;40452;50.080;20.040;2022-08-21T10:03:26;24.55;;;14.07;;
54557;SDS011;40452;50.080;20.040;2022-08-21T10:06:05;23.10;;;14.82;;
54557;SDS011;40452;50.080;20.040;2022-08-21T10:08:35;21.08;;;14.05;;
54557;SDS011;40452;50.080;20.040;2022-08-21T10:11:13;23.38;;;13.80;;
54557;SDS011;40452;50.080;20.040;2022-08-21T10:21:31;18.55;;;14.15;;
54557;SDS011;40452;50.080;20.040;2022-08-21T10:26:57;23.00;;;14.15;;
54557;SDS011;40452;50.080;20.040;2022-08-21T10:29:34;21.00;;;14.20;;
54557;SDS011;40452;50.080;20.040;2022-08-21T10:46:23;20.63;;;15.18;;
54557;SDS011;40452;50.080;20.040;2022-08-21T10:52:16;24.75;;;15.77;;
54557;SDS011;40452;50.080;20.040;2022-08-21T10:55:17;24.30;;;14.10;;
54557;SDS011;40452;50.080;20.040;2022-08-21T10:58:04;25.55;;;14.40;;
54557;SDS011;40452;50.080;20.040;2022-08-21T11:00:45;20.50;;;15.23;;
54557;SDS011;40452;50.080;20.040;2022-08-21T11:03:25;25.35;;;15.20;;
54557;SDS011;40452;50.080;20.040;2022-08-21T11:06:14;26.88;;;15.07;;
54557;SDS011;40452;50.080;20.040;2022-08-21T11:08:45;25.88;;;16.83;;
54557;SDS011;40452;50.080;20.040;2022-08-21T11:11:20;23.48;;;15.80;;
54557;SDS011;40452;50.080;20.040;2022-08-21T11:13:58;24.48;;;15.63;;
54557;SDS011;40452;50.080;20.040;2022-08-21T11:16:45;21.75;;;15.52;;
54557;SDS011;40452;50.080;20.040;2022-08-21T11:19:21;22.27;;;15.30;;
54557;SDS011;40452;50.080;20.040;2022-08-21T11:29:54;20.73;;;11.02;;
54557;SDS011;40452;50.080;20.040;2022-08-21T11:43:34;10.60;;;5.72;;
54557;SDS011;40452;50.080;20.040;2022-08-21T11:51:39;7.38;;;4.90;;
54557;SDS011;40452;50.080;20.040;2022-08-21T11:56:50;9.32;;;4.90;;
54557;SDS011;40452;50.080;20.040;2022-08-21T11:59:25;11.57;;;4.63;;
54557;SDS011;40452;50.080;20.040;2022-08-21T12:02:06;6.35;;;4.10;;
54557;SDS011;40452;50.080;20.040;2022-08-21T12:04:46;6.63;;;3.72;;
54557;SDS011;40452;50.080;20.040;2022-08-21T12:07:31;7.75;;;3.80;;
54557;SDS011;40452;50.080;20.040;2022-08-21T12:10:04;4.40;;;3.00;;
54557;SDS011;40452;50.080;20.040;2022-08-21T12:12:42;5.00;;;2.80;;
54557;SDS011;40452;50.080;20.040;2022-08-21T12:15:15;4.65;;;2.75;;
54557;SDS011;40452;50.080;20.040;2022-08-21T12:28:26;4.97;;;2.95;;
54557;SDS011;40452;50.080;20.040;2022-08-21T12:30:53;9.10;;;3.30;;
54557;SDS011;40452;50.080;20.040;2022-08-21T12:36:35;5.10;;;3.35;;
54557;SDS011;40452;50.080;20.040;2022-08-21T12:38:55;8.18;;;3.65;;
54557;SDS011;40452;50.080;20.040;2022-08-21T12:44:14;5.38;;;3.47;;
54557;SDS011;40452;50.080;20.040;2022-08-21T12:46:58;5.97;;;3.88;;
54557;SDS011;40452;50.080;20.040;2022-08-21T12:49:33;6.05;;;3.38;;
54557;SDS011;40452;50.080;20.040;2022-08-21T12:52:14;6.13;;;3.08;;
54557;SDS011;40452;50.080;20.040;2022-08-21T12:54:45;9.13;;;3.17;;
54557;SDS011;40452;50.080;20.040;2022-08-21T12:57:21;5.38;;;2.95;;
54557;SDS011;40452;50.080;20.040;2022-08-21T13:02:22;4.53;;;2.83;;
54557;SDS011;40452;50.080;20.040;2022-08-21T13:04:51;4.70;;;2.58;;
54557;SDS011;40452;50.080;20.040;2022-08-21T13:07:30;3.88;;;2.50;;
54557;SDS011;40452;50.080;20.040;2022-08-21T13:09:59;5.63;;;2.53;;
54557;SDS011;40452;50.080;20.040;2022-08-21T13:12:29;6.75;;;2.50;;
54557;SDS011;40452;50.080;20.040;2022-08-21T13:14:56;3.67;;;2.55;;
54557;SDS011;40452;50.080;20.040;2022-08-21T13:17:24;4.70;;;2.75;;
54557;SDS011;40452;50.080;20.040;2022-08-21T13:22:25;4.03;;;2.15;;
54557;SDS011;40452;50.080;20.040;2022-08-21T13:24:52;3.33;;;2.15;;
54557;SDS011;40452;50.080;20.040;2022-08-21T13:27:23;4.03;;;1.90;;
54557;SDS011;40452;50.080;20.040;2022-08-21T13:30:02;3.20;;;2.10;;
54557;SDS011;40452;50.080;20.040;2022-08-21T13:32:43;3.60;;;1.98;;
54557;SDS011;40452;50.080;20.040;2022-08-21T13:35:21;3.60;;;1.70;;
54557;SDS011;40452;50.080;20.040;2022-08-21T13:37:55;3.42;;;2.08;;
54557;SDS011;40452;50.080;20.040;2022-08-21T13:40:25;5.68;;;2.20;;
54557;SDS011;40452;50.080;20.040;2022-08-21T13:42:54;6.25;;;2.55;;
54557;SDS011;40452;50.080;20.040;2022-08-21T13:45:29;4.43;;;2.42;;
54557;SDS011;40452;50.080;20.040;2022-08-21T13:47:57;5.80;;;2.53;;
54557;SDS011;40452;50.080;20.040;2022-08-21T13:50:25;5.20;;;2.55;;
54557;SDS011;40452;50.080;20.040;2022-08-21T13:52:56;3.50;;;2.35;;
54557;SDS011;40452;50.080;20.040;2022-08-21T13:55:24;3.92;;;2.25;;
54557;SDS011;40452;50.080;20.040;2022-08-21T13:58:00;4.75;;;2.60;;
54557;SDS011;40452;50.080;20.040;2022-08-21T14:00:28;4.93;;;2.53;;
54557;SDS011;40452;50.080;20.040;2022-08-21T14:02:59;6.00;;;2.30;;
54557;SDS011;40452;50.080;20.040;2022-08-21T14:05:34;5.90;;;2.50;;
54557;SDS011;40452;50.080;20.040;2022-08-21T14:08:04;4.18;;;2.78;;
54557;SDS011;40452;50.080;20.040;2022-08-21T14:10:29;6.72;;;3.00;;
54557;SDS011;40452;50.080;20.040;2022-08-21T14:12:59;3.65;;;2.70;;
54557;SDS011;40452;50.080;20.040;2022-08-21T14:15:29;4.72;;;3.20;;
54557;SDS011;40452;50.080;20.040;2022-08-21T14:18:15;3.67;;;3.05;;
54557;SDS011;40452;50.080;20.040;2022-08-21T14:20:43;4.80;;;3.08;;
54557;SDS011;40452;50.080;20.040;2022-08-21T14:23:09;4.60;;;3.08;;
54557;SDS011;40452;50.080;20.040;2022-08-21T14:30:50;4.30;;;2.97;;
54557;SDS011;40452;50.080;20.040;2022-08-21T14:33:26;4.03;;;2.80;;
54557;SDS011;40452;50.080;20.040;2022-08-21T14:35:54;4.65;;;2.97;;
54557;SDS011;40452;50.080;20.040;2022-08-21T14:38:21;5.13;;;3.00;;
54557;SDS011;40452;50.080;20.040;2022-08-21T14:40:53;4.10;;;2.88;;
54557;SDS011;40452;50.080;20.040;2022-08-21T14:43:25;4.07;;;2.80;;
54557;SDS011;40452;50.080;20.040;2022-08-21T14:45:52;10.48;;;2.70;;
54557;SDS011;40452;50.080;20.040;2022-08-21T14:48:18;3.72;;;3.05;;
54557;SDS011;40452;50.080;20.040;2022-08-21T14:50:43;3.63;;;2.70;;
54557;SDS011;40452;50.080;20.040;2022-08-21T14:53:09;4.07;;;2.80;;
54557;SDS011;40452;50.080;20.040;2022-08-21T14:55:36;3.00;;;2.70;;
54557;SDS011;40452;50.080;20.040;2022-08-21T14:58:28;3.80;;;2.88;;
54557;SDS011;40452;50.080;20.040;2022-08-21T15:00:54;4.35;;;2.60;;
54557;SDS011;40452;50.080;20.040;2022-08-21T15:03:22;5.35;;;2.55;;
54557;SDS011;40452;50.080;20.040;2022-08-21T15:05:48;4.55;;;2.70;;
54557;SDS011;40452;50.080;20.040;2022-08-21T15:08:14;3.33;;;2.35;;
54557;SDS011;40452;50.080;20.040;2022-08-21T15:10:40;2.95;;;2.50;;
54557;SDS011;40452;50.080;20.040;2022-08-21T15:13:06;5.03;;;2.28;;
54557;SDS011;40452;50.080;20.040;2022-08-21T15:15:34;5.05;;;2.55;;
54557;SDS011;40452;50.080;20.040;2022-08-21T15:18:04;4.53;;;2.40;;
54557;SDS011;40452;50.080;20.040;2022-08-21T15:20:29;4.38;;;2.53;;
54557;SDS011;40452;50.080;20.040;2022-08-21T15:22:55;3.63;;;2.28;;
54557;SDS011;40452;50.080;20.040;2022-08-21T15:25:20;5.13;;;2.50;;
54557;SDS011;40452;50.080;20.040;2022-08-21T15:27:46;2.78;;;2.00;;
54557;SDS011;40452;50.080;20.040;2022-08-21T15:30:13;3.28;;;2.13;;
54557;SDS011;40452;50.080;20.040;2022-08-21T15:32:38;3.53;;;1.90;;
54557;SDS011;40452;50.080;20.040;2022-08-21T15:35:05;2.78;;;1.88;;
54557;SDS011;40452;50.080;20.040;2022-08-21T15:37:30;2.92;;;1.77;;
54557;SDS011;40452;50.080;20.040;2022-08-21T15:39:57;2.88;;;1.70;;
54557;SDS011;40452;50.080;20.040;2022-08-21T15:42:23;5.32;;;2.10;;
54557;SDS011;40452;50.080;20.040;2022-08-21T15:44:51;4.07;;;1.73;;
54557;SDS011;40452;50.080;20.040;2022-08-21T15:47:20;2.22;;;1.75;;
54557;SDS011;40452;50.080;20.040;2022-08-21T15:49:49;7.10;;;1.98;;
54557;SDS011;40452;50.080;20.040;2022-08-21T15:52:18;5.90;;;2.13;;
54557;SDS011;40452;50.080;20.040;2022-08-21T15:57:12;5.05;;;2.20;;
54557;SDS011;40452;50.080;20.040;2022-08-21T15:59:41;7.50;;;2.15;;
54557;SDS011;40452;50.080;20.040;2022-08-21T16:02:15;9.48;;;2.13;;
54557;SDS011;40452;50.080;20.040;2022-08-21T16:04:50;2.42;;;1.90;;
54557;SDS011;40452;50.080;20.040;2022-08-21T16:07:15;2.75;;;2.10;;
54557;SDS011;40452;50.080;20.040;2022-08-21T16:09:41;3.97;;;1.90;;
54557;SDS011;40452;50.080;20.040;2022-08-21T16:12:07;4.18;;;2.15;;
54557;SDS011;40452;50.080;20.040;2022-08-21T16:14:35;3.30;;;2.05;;
54557;SDS011;40452;50.080;20.040;2022-08-21T16:17:03;6.28;;;1.98;;
54557;SDS011;40452;50.080;20.040;2022-08-21T16:19:30;5.32;;;2.30;;
54557;SDS011;40452;50.080;20.040;2022-08-21T16:21:56;4.40;;;2.83;;
54557;SDS011;40452;50.080;20.040;2022-08-21T16:24:22;6.05;;;2.50;;
54557;SDS011;40452;50.080;20.040;2022-08-21T16:26:48;5.50;;;2.83;;
54557;SDS011;40452;50.080;20.040;2022-08-21T16:29:14;3.40;;;2.40;;
54557;SDS011;40452;50.080;20.040;2022-08-21T16:31:40;6.90;;;2.97;;
54557;SDS011;40452;50.080;20.040;2022-08-21T16:34:06;6.53;;;2.85;;
54557;SDS011;40452;50.080;20.040;2022-08-21T16:36:31;5.28;;;2.92;;
54557;SDS011;40452;50.080;20.040;2022-08-21T16:38:58;6.65;;;3.00;;
54557;SDS011;40452;50.080;20.040;2022-08-21T16:41:31;5.40;;;2.97;;
54557;SDS011;40452;50.080;20.040;2022-08-21T16:43:58;5.30;;;2.88;;
54557;SDS011;40452;50.080;20.040;2022-08-21T16:46:25;4.93;;;3.00;;
54557;SDS011;40452;50.080;20.040;2022-08-21T16:48:52;7.43;;;3.10;;
54557;SDS011;40452;50.080;20.040;2022-08-21T16:51:18;5.30;;;2.72;;
54557;SDS011;40452;50.080;20.040;2022-08-21T16:53:44;4.07;;;2.47;;
54557;SDS011;40452;50.080;20.040;2022-08-21T16:56:10;4.10;;;2.40;;
54557;SDS011;40452;50.080;20.040;2022-08-21T16:58:39;7.88;;;2.90;;
54557;SDS011;40452;50.080;20.040;2022-08-21T17:01:07;5.18;;;2.70;;
54557;SDS011;40452;50.080;20.040;2022-08-21T17:03:39;3.28;;;2.50;;
54557;SDS011;40452;50.080;20.040;2022-08-21T17:06:06;10.50;;;2.92;;
54557;SDS011;40452;50.080;20.040;2022-08-21T17:08:33;5.22;;;2.42;;
54557;SDS011;40452;50.080;20.040;2022-08-21T17:10:59;4.25;;;2.90;;
54557;SDS011;40452;50.080;20.040;2022-08-21T17:13:26;4.25;;;2.83;;
54557;SDS011;40452;50.080;20.040;2022-08-21T17:15:52;3.17;;;2.45;;
54557;SDS011;40452;50.080;20.040;2022-08-21T17:18:18;4.03;;;2.88;;
54557;SDS011;40452;50.080;20.040;2022-08-21T17:20:46;5.25;;;2.38;;
54557;SDS011;40452;50.080;20.040;2022-08-21T17:23:13;4.45;;;2.22;;
54557;SDS011;40452;50.080;20.040;2022-08-21T17:25:40;5.32;;;2.45;;
54557;SDS011;40452;50.080;20.040;2022-08-21T17:28:10;4.53;;;2.25;;
54557;SDS011;40452;50.080;20.040;2022-08-21T17:30:42;4.25;;;2.40;;
54557;SDS011;40452;50.080;20.040;2022-08-21T17:33:10;3.45;;;2.58;;
54557;SDS011;40452;50.080;20.040;2022-08-21T17:35:38;5.20;;;2.92;;
54557;SDS011;40452;50.080;20.040;2022-08-21T17:38:04;3.55;;;2.50;;
54557;SDS011;40452;50.080;20.040;2022-08-21T17:40:31;3.85;;;2.42;;
54557;SDS011;40452;50.080;20.040;2022-08-21T17:42:56;3.30;;;2.60;;
54557;SDS011;40452;50.080;20.040;2022-08-21T17:45:22;5.20;;;2.80;;
54557;SDS011;40452;50.080;20.040;2022-08-21T17:47:48;4.20;;;3.05;;
54557;SDS011;40452;50.080;20.040;2022-08-21T17:50:14;4.90;;;2.75;;
54557;SDS011;40452;50.080;20.040;2022-08-21T17:52:42;3.55;;;2.47;;
54557;SDS011;40452;50.080;20.040;2022-08-21T17:55:09;3.72;;;2.40;;
54557;SDS011;40452;50.080;20.040;2022-08-21T17:57:35;3.65;;;2.13;;
54557;SDS011;40452;50.080;20.040;2022-08-21T18:00:04;2.83;;;2.45;;
54557;SDS011;40452;50.080;20.040;2022-08-21T18:02:32;3.20;;;2.45;;
54557;SDS011;40452;50.080;20.040;2022-08-21T18:04:58;2.95;;;2.25;;
54557;SDS011;40452;50.080;20.040;2022-08-21T18:07:23;3.67;;;2.75;;
54557;SDS011;40452;50.080;20.040;2022-08-21T18:09:49;6.03;;;2.45;;
54557;SDS011;40452;50.080;20.040;2022-08-21T18:12:15;3.63;;;2.40;;
54557;SDS011;40452;50.080;20.040;2022-08-21T18:14:40;5.43;;;2.75;;
54557;SDS011;40452;50.080;20.040;2022-08-21T18:17:08;4.05;;;2.90;;
54557;SDS011;40452;50.080;20.040;2022-08-21T18:19:36;4.43;;;3.20;;
54557;SDS011;40452;50.080;20.040;2022-08-21T18:22:03;5.95;;;3.20;;
54557;SDS011;40452;50.080;20.040;2022-08-21T18:24:33;5.30;;;2.80;;
54557;SDS011;40452;50.080;20.040;2022-08-21T18:27:00;4.32;;;3.05;;
54557;SDS011;40452;50.080;20.040;2022-08-21T18:29:27;4.07;;;2.80;;
54557;SDS011;40452;50.080;20.040;2022-08-21T18:31:53;4.15;;;2.63;;
54557;SDS011;40452;50.080;20.040;2022-08-21T18:34:24;4.20;;;2.92;;
54557;SDS011;40452;50.080;20.040;2022-08-21T18:36:58;4.30;;;2.28;;
54557;SDS011;40452;50.080;20.040;2022-08-21T18:39:24;2.90;;;2.35;;
54557;SDS011;40452;50.080;20.040;2022-08-21T18:41:50;4.53;;;2.60;;
54557;SDS011;40452;50.080;20.040;2022-08-21T18:44:17;3.08;;;2.08;;
54557;SDS011;40452;50.080;20.040;2022-08-21T18:46:48;4.38;;;2.53;;
54557;SDS011;40452;50.080;20.040;2022-08-21T18:49:23;4.65;;;2.88;;
54557;SDS011;40452;50.080;20.040;2022-08-21T18:51:49;2.95;;;2.00;;
54557;SDS011;40452;50.080;20.040;2022-08-21T18:54:15;2.97;;;2.40;;
54557;SDS011;40452;50.080;20.040;2022-08-21T18:56:41;3.28;;;2.40;;
54557;SDS011;40452;50.080;20.040;2022-08-21T18:59:07;3.45;;;2.45;;
54557;SDS011;40452;50.080;20.040;2022-08-21T19:01:34;11.90;;;2.65;;
54557;SDS011;40452;50.080;20.040;2022-08-21T19:04:00;6.57;;;3.38;;
54557;SDS011;40452;50.080;20.040;2022-08-21T19:06:26;4.45;;;2.97;;
54557;SDS011;40452;50.080;20.040;2022-08-21T19:08:52;4.65;;;2.63;;
54557;SDS011;40452;50.080;20.040;2022-08-21T19:11:19;3.05;;;2.17;;
54557;SDS011;40452;50.080;20.040;2022-08-21T19:13:47;3.05;;;2.40;;
54557;SDS011;40452;50.080;20.040;2022-08-21T19:16:14;4.55;;;2.40;;
54557;SDS011;40452;50.080;20.040;2022-08-21T19:18:41;3.28;;;2.90;;
54557;SDS011;40452;50.080;20.040;2022-08-21T19:21:06;5.05;;;3.05;;
54557;SDS011;40452;50.080;20.040;2022-08-21T19:23:32;4.57;;;2.95;;
54557;SDS011;40452;50.080;20.040;2022-08-21T19:25:59;4.20;;;3.15;;
54557;SDS011;40452;50.080;20.040;2022-08-21T19:28:28;4.75;;;3.17;;
54557;SDS011;40452;50.080;20.040;2022-08-21T19:31:09;4.27;;;3.37;;
54557;SDS011;40452;50.080;20.040;2022-08-21T19:33:46;5.22;;;3.58;;
54557;SDS011;40452;50.080;20.040;2022-08-21T19:36:14;4.32;;;3.67;;
54557;SDS011;40452;50.080;20.040;2022-08-21T19:38:40;4.10;;;3.22;;
54557;SDS011;40452;50.080;20.040;2022-08-21T19:41:08;4.18;;;3.28;;
54557;SDS011;40452;50.080;20.040;2022-08-21T19:43:46;3.28;;;2.97;;
54557;SDS011;40452;50.080;20.040;2022-08-21T19:46:19;4.73;;;2.77;;
54557;SDS011;40452;50.080;20.040;2022-08-21T19:48:57;5.30;;;2.88;;
54557;SDS011;40452;50.080;20.040;2022-08-21T19:51:24;5.10;;;2.85;;
54557;SDS011;40452;50.080;20.040;2022-08-21T19:53:50;3.50;;;3.10;;
54557;SDS011;40452;50.080;20.040;2022-08-21T19:56:17;4.30;;;2.70;;
54557;SDS011;40452;50.080;20.040;2022-08-21T19:58:45;4.20;;;3.08;;
54557;SDS011;40452;50.080;20.040;2022-08-21T20:01:11;3.33;;;2.60;;
54557;SDS011;40452;50.080;20.040;2022-08-21T20:03:38;3.55;;;2.83;;
54557;SDS011;40452;50.080;20.040;2022-08-21T20:06:04;2.97;;;2.60;;
54557;SDS011;40452;50.080;20.040;2022-08-21T20:08:30;4.10;;;2.45;;
54557;SDS011;40452;50.080;20.040;2022-08-21T20:10:57;6.60;;;2.70;;
54557;SDS011;40452;50.080;20.040;2022-08-21T20:13:25;3.58;;;2.67;;
54557;SDS011;40452;50.080;20.040;2022-08-21T20:15:56;4.75;;;2.70;;
54557;SDS011;40452;50.080;20.040;2022-08-21T20:18:22;6.68;;;2.78;;
54557;SDS011;40452;50.080;20.040;2022-08-21T20:20:48;3.30;;;2.17;;
54557;SDS011;40452;50.080;20.040;2022-08-21T20:23:15;4.15;;;2.30;;
54557;SDS011;40452;50.080;20.040;2022-08-21T20:25:42;3.15;;;2.30;;
54557;SDS011;40452;50.080;20.040;2022-08-21T20:28:09;3.67;;;2.20;;
54557;SDS011;40452;50.080;20.040;2022-08-21T20:30:35;3.10;;;2.10;;
54557;SDS011;40452;50.080;20.040;2022-08-21T20:33:00;3.50;;;2.17;;
54557;SDS011;40452;50.080;20.040;2022-08-21T20:35:26;2.03;;;1.63;;
54557;SDS011;40452;50.080;20.040;2022-08-21T20:37:52;4.07;;;2.20;;
54557;SDS011;40452;50.080;20.040;2022-08-21T20:40:17;2.50;;;1.98;;
54557;SDS011;40452;50.080;20.040;2022-08-21T20:42:47;2.25;;;1.85;;
54557;SDS011;40452;50.080;20.040;2022-08-21T20:47:48;3.05;;;2.17;;
54557;SDS011;40452;50.080;20.040;2022-08-21T20:50:23;2.40;;;2.10;;
54557;SDS011;40452;50.080;20.040;2022-08-21T20:52:52;2.95;;;2.25;;
54557;SDS011;40452;50.080;20.040;2022-08-21T20:55:25;2.28;;;1.80;;
54557;SDS011;40452;50.080;20.040;2022-08-21T20:57:59;2.05;;;1.80;;
54557;SDS011;40452;50.080;20.040;2022-08-21T21:00:28;2.47;;;2.10;;
54557;SDS011;40452;50.080;20.040;2022-08-21T21:03:00;4.38;;;1.98;;
54557;SDS011;40452;50.080;20.040;2022-08-21T21:05:46;1.73;;;1.48;;
54557;SDS011;40452;50.080;20.040;2022-08-21T21:13:43;2.95;;;1.70;;
54557;SDS011;40452;50.080;20.040;2022-08-21T21:16:23;2.67;;;1.80;;
54557;SDS011;40452;50.080;20.040;2022-08-21T21:18:53;3.10;;;1.80;;
54557;SDS011;40452;50.080;20.040;2022-08-21T21:24:16;2.42;;;1.73;;
54557;SDS011;40452;50.080;20.040;2022-08-21T21:26:48;2.78;;;1.58;;
54557;SDS011;40452;50.080;20.040;2022-08-21T21:29:20;3.90;;;1.90;;
54557;SDS011;40452;50.080;20.040;2022-08-21T21:31:51;3.13;;;1.77;;
54557;SDS011;40452;50.080;20.040;2022-08-21T21:34:18;2.17;;;1.65;;
